YCFSYBCG

Guest
Details From YCFS - Coffs Harbour
To YBCG - Gold Coast International
Flight Number -
Tags generated
Created
Modified
Stats Distance 132 nm / 244 km
Max Altitude 8,600 ft / 2,621 m
Waypoints 3
Social Downloads 2
Likes 0
Share VATSIM

Download

Looking for another format? Having issues loading an existing format? Contact us
Advertisement - Login to hide

Notes

Basic altitude profile: - Ascent Rate: 2500ft/min - Ascent Speed: 250kts - Cruise Altitude: 35000ft - Cruise Speed: 420kts - Descent Rate: 1500ft/min - Descent Speed: 250kts Options: - Use NATs: yes - Use PACOTS: yes - Use low airways: yes - Use high airways: yes

Route

YCFS BERNI YBCG

ID Type Via Altitude Latitude Longitude Leg Dist Tot Dist Heading (true) Name
O YCFS APT - 0 ft / 0 m -30.32443˚ 153.11596˚ - 0 nm - Coffs Harbour
BERNI FIX - 8,600 ft / 2,621 m -28.83833˚ 153.46528˚ 91 nm 91 nm 12° / 11° -
O YBCG APT - 0 ft / 0 m -28.16604˚ 153.50616˚ 40 nm 131 nm 3° / 3° Gold Coast International

Altitude Profile

Advertisement - Login to hide

YCFS

Details ICAO YCFS
Name Coffs Harbour
Region Australia
Timezone Australia/Sydney (UTC+11.0)
Stats Elevation 18 ft / 5 m (AMSL)
Location -30.324426° 153.115959°
Runways 2
Magnetic Variation 11.916° E

METAR

YCFS 161500Z AUTO 35009KT 9999 // NCD 23/18 Q1015

Decode

TAF

TAF YCFS 161123Z 1612/1712 36010KT 9999 BKN015 BECMG 1623/1701 05015G25KT 9999 SCT030 FM170800 02010KT 9999 SCT030

Decode

Departure Runways

ID Width Length Bearing (true) Bearing (mag) Surface Threshold Offset Overrun Length
03 148 ft / 45 m 6,832 ft / 2,082 m 40.57° 28.65° Asphalt 0 ft / 0 m 0 ft / 0 m
10 59 ft / 18 m 2,792 ft / 851 m 107.17° 95.25° Asphalt 262 ft / 80 m 0 ft / 0 m
21 148 ft / 45 m 6,832 ft / 2,082 m 220.57° 208.65° Asphalt 0 ft / 0 m 0 ft / 0 m
28 59 ft / 18 m 2,792 ft / 851 m 287.16° 275.24° Asphalt 66 ft / 20 m 0 ft / 0 m

YBCG

Details ICAO YBCG (OOL)
Name Gold Coast International
Region Australia
Timezone Australia/Brisbane (UTC+10.0)
Stats Elevation 20 ft / 6 m (AMSL)
Location -28.166035° 153.506155°
Runways 2
Magnetic Variation 11.330° E

METAR

YBCG 161500Z AUTO 03009KT 9999 // SCT028 SCT036 SCT041 24/17 Q1015

Decode

TAF

TAF YBCG 161111Z 1612/1712 04010KT 9999 FEW020 SCT040 FM161800 20005KT 9999 FEW020 SCT025 FM162200 04010KT 9999 SCT030

Decode

Destination Runways

ID Width Length Bearing (true) Bearing (mag) Surface Threshold Offset Overrun Length
14 148 ft / 45 m 7,687 ft / 2,343 m 150.04° 138.71° Asphalt 0 ft / 0 m 394 ft / 120 m
17 59 ft / 18 m 1,911 ft / 582 m 184.00° 172.67° Asphalt 0 ft / 0 m 0 ft / 0 m
32 148 ft / 45 m 7,687 ft / 2,343 m 330.04° 318.71° Asphalt 0 ft / 0 m 394 ft / 120 m
35 59 ft / 18 m 1,911 ft / 582 m 4.00° 352.67° Asphalt 0 ft / 0 m 0 ft / 0 m

Popular Alternatives